sensor_id;sensor_type;location;lat;lon;timestamp;temperature;humidity
4697;DHT22;2362;50.780;0.292;2023-02-03T00:01:28;9.40;99.90
4697;DHT22;2362;50.780;0.292;2023-02-03T00:03:53;9.40;99.90
4697;DHT22;2362;50.780;0.292;2023-02-03T00:06:19;9.40;99.90
4697;DHT22;2362;50.780;0.292;2023-02-03T00:08:46;9.50;99.90
4697;DHT22;2362;50.780;0.292;2023-02-03T00:11:12;9.40;99.90
4697;DHT22;2362;50.780;0.292;2023-02-03T00:13:37;9.40;99.90
4697;DHT22;2362;50.780;0.292;2023-02-03T00:16:04;9.40;99.90
4697;DHT22;2362;50.780;0.292;2023-02-03T00:18:31;9.40;99.90
4697;DHT22;2362;50.780;0.292;2023-02-03T00:20:57;9.30;99.90
4697;DHT22;2362;50.780;0.292;2023-02-03T00:23:23;9.20;99.90
4697;DHT22;2362;50.780;0.292;2023-02-03T00:25:51;9.10;99.90
4697;DHT22;2362;50.780;0.292;2023-02-03T00:28:17;9.00;99.90
4697;DHT22;2362;50.780;0.292;2023-02-03T00:30:42;9.10;99.90
4697;DHT22;2362;50.780;0.292;2023-02-03T00:33:08;9.10;99.90
4697;DHT22;2362;50.780;0.292;2023-02-03T00:35:37;9.20;99.90
4697;DHT22;2362;50.780;0.292;2023-02-03T00:38:03;9.20;99.90
4697;DHT22;2362;50.780;0.292;2023-02-03T00:40:29;9.30;99.90
4697;DHT22;2362;50.780;0.292;2023-02-03T00:42:54;9.30;99.90
4697;DHT22;2362;50.780;0.292;2023-02-03T00:45:20;9.30;99.90
4697;DHT22;2362;50.780;0.292;2023-02-03T00:47:46;9.30;99.90
4697;DHT22;2362;50.780;0.292;2023-02-03T00:50:11;9.30;99.90
4697;DHT22;2362;50.780;0.292;2023-02-03T00:52:37;9.30;99.90
4697;DHT22;2362;50.780;0.292;2023-02-03T00:55:03;9.30;99.90
4697;DHT22;2362;50.780;0.292;2023-02-03T00:57:29;9.30;99.90
4697;DHT22;2362;50.780;0.292;2023-02-03T00:59:55;9.30;99.90
4697;DHT22;2362;50.780;0.292;2023-02-03T01:02:22;9.40;99.90
4697;DHT22;2362;50.780;0.292;2023-02-03T01:04:48;9.30;99.90
4697;DHT22;2362;50.780;0.292;2023-02-03T01:07:14;9.40;99.90
4697;DHT22;2362;50.780;0.292;2023-02-03T01:09:39;9.30;99.90
4697;DHT22;2362;50.780;0.292;2023-02-03T01:12:05;9.40;99.90
4697;DHT22;2362;50.780;0.292;2023-02-03T01:14:31;9.40;99.90
4697;DHT22;2362;50.780;0.292;2023-02-03T01:16:57;9.30;99.90
4697;DHT22;2362;50.780;0.292;2023-02-03T01:19:23;9.40;99.90
4697;DHT22;2362;50.780;0.292;2023-02-03T01:21:49;9.40;99.90
4697;DHT22;2362;50.780;0.292;2023-02-03T01:24:15;9.30;99.90
4697;DHT22;2362;50.780;0.292;2023-02-03T01:26:40;9.30;99.90
4697;DHT22;2362;50.780;0.292;2023-02-03T01:29:06;9.30;99.90
4697;DHT22;2362;50.780;0.292;2023-02-03T01:31:37;9.30;99.90
4697;DHT22;2362;50.780;0.292;2023-02-03T01:34:09;9.20;99.90
4697;DHT22;2362;50.780;0.292;2023-02-03T01:36:35;9.20;99.90
4697;DHT22;2362;50.780;0.292;2023-02-03T01:39:02;9.20;99.90
4697;DHT22;2362;50.780;0.292;2023-02-03T01:41:32;9.20;99.90
4697;DHT22;2362;50.780;0.292;2023-02-03T01:43:59;9.20;99.90
4697;DHT22;2362;50.780;0.292;2023-02-03T01:46:35;9.10;99.90
4697;DHT22;2362;50.780;0.292;2023-02-03T01:51:42;9.10;99.90
4697;DHT22;2362;50.780;0.292;2023-02-03T01:54:12;9.10;99.90
4697;DHT22;2362;50.780;0.292;2023-02-03T01:56:43;9.10;99.90
4697;DHT22;2362;50.780;0.292;2023-02-03T01:59:09;9.10;99.90
4697;DHT22;2362;50.780;0.292;2023-02-03T02:01:35;9.10;99.90
4697;DHT22;2362;50.780;0.292;2023-02-03T02:04:02;9.10;99.90
4697;DHT22;2362;50.780;0.292;2023-02-03T02:06:29;9.00;99.90
4697;DHT22;2362;50.780;0.292;2023-02-03T02:08:56;9.00;99.90
4697;DHT22;2362;50.780;0.292;2023-02-03T02:11:25;9.10;99.90
4697;DHT22;2362;50.780;0.292;2023-02-03T02:13:53;9.00;99.90
4697;DHT22;2362;50.780;0.292;2023-02-03T02:16:33;9.00;99.90
4697;DHT22;2362;50.780;0.292;2023-02-03T02:19:31;9.10;99.90
4697;DHT22;2362;50.780;0.292;2023-02-03T02:35:43;9.00;99.90
4697;DHT22;2362;50.780;0.292;2023-02-03T02:38:33;9.00;99.90
4697;DHT22;2362;50.780;0.292;2023-02-03T02:41:14;9.00;99.90
4697;DHT22;2362;50.780;0.292;2023-02-03T02:46:15;9.00;99.90
4697;DHT22;2362;50.780;0.292;2023-02-03T02:48:56;9.00;99.90
4697;DHT22;2362;50.780;0.292;2023-02-03T02:51:23;9.00;99.90
4697;DHT22;2362;50.780;0.292;2023-02-03T02:53:53;9.10;99.90
4697;DHT22;2362;50.780;0.292;2023-02-03T02:56:20;9.10;99.90
4697;DHT22;2362;50.780;0.292;2023-02-03T02:58:48;9.10;99.90
4697;DHT22;2362;50.780;0.292;2023-02-03T03:01:15;9.10;99.90
4697;DHT22;2362;50.780;0.292;2023-02-03T03:03:41;9.10;99.90
4697;DHT22;2362;50.780;0.292;2023-02-03T03:09:01;9.10;99.90
4697;DHT22;2362;50.780;0.292;2023-02-03T03:11:32;9.10;99.90
4697;DHT22;2362;50.780;0.292;2023-02-03T03:13:58;9.10;99.90
4697;DHT22;2362;50.780;0.292;2023-02-03T03:16:27;9.10;99.90
4697;DHT22;2362;50.780;0.292;2023-02-03T03:19:00;9.10;99.90
4697;DHT22;2362;50.780;0.292;2023-02-03T03:21:31;9.10;99.90
4697;DHT22;2362;50.780;0.292;2023-02-03T03:24:02;9.10;99.90
4697;DHT22;2362;50.780;0.292;2023-02-03T03:26:35;9.10;99.90
4697;DHT22;2362;50.780;0.292;2023-02-03T03:31:29;9.10;99.90
4697;DHT22;2362;50.780;0.292;2023-02-03T03:33:55;9.10;99.90
4697;DHT22;2362;50.780;0.292;2023-02-03T03:36:29;9.10;99.90
4697;DHT22;2362;50.780;0.292;2023-02-03T03:41:42;9.20;99.90
4697;DHT22;2362;50.780;0.292;2023-02-03T03:44:11;9.10;99.90
4697;DHT22;2362;50.780;0.292;2023-02-03T03:46:48;9.10;99.90
4697;DHT22;2362;50.780;0.292;2023-02-03T03:49:17;9.10;99.90
4697;DHT22;2362;50.780;0.292;2023-02-03T03:51:52;9.10;99.90
4697;DHT22;2362;50.780;0.292;2023-02-03T03:54:21;9.10;99.90
4697;DHT22;2362;50.780;0.292;2023-02-03T03:59:35;9.00;99.90
4697;DHT22;2362;50.780;0.292;2023-02-03T04:02:02;9.00;99.90
4697;DHT22;2362;50.780;0.292;2023-02-03T04:04:31;9.00;99.90
4697;DHT22;2362;50.780;0.292;2023-02-03T04:06:57;9.00;99.90
4697;DHT22;2362;50.780;0.292;2023-02-03T04:09:23;9.00;99.90
4697;DHT22;2362;50.780;0.292;2023-02-03T04:11:49;9.00;99.90
4697;DHT22;2362;50.780;0.292;2023-02-03T04:14:28;9.00;99.90
4697;DHT22;2362;50.780;0.292;2023-02-03T04:16:55;9.00;99.90
4697;DHT22;2362;50.780;0.292;2023-02-03T04:19:21;9.00;99.90
4697;DHT22;2362;50.780;0.292;2023-02-03T04:21:47;8.90;99.90
4697;DHT22;2362;50.780;0.292;2023-02-03T04:24:12;8.90;99.90
4697;DHT22;2362;50.780;0.292;2023-02-03T04:26:38;8.90;99.90
4697;DHT22;2362;50.780;0.292;2023-02-03T04:29:04;8.90;99.90
4697;DHT22;2362;50.780;0.292;2023-02-03T04:31:29;8.90;99.90
4697;DHT22;2362;50.780;0.292;2023-02-03T04:33:55;8.90;99.90
4697;DHT22;2362;50.780;0.292;2023-02-03T04:36:21;8.80;99.90
4697;DHT22;2362;50.780;0.292;2023-02-03T04:38:49;8.80;99.90
4697;DHT22;2362;50.780;0.292;2023-02-03T04:41:15;8.80;99.90
4697;DHT22;2362;50.780;0.292;2023-02-03T04:43:40;8.80;99.90
4697;DHT22;2362;50.780;0.292;2023-02-03T04:46:06;8.70;99.90
4697;DHT22;2362;50.780;0.292;2023-02-03T04:48:31;8.80;99.90
4697;DHT22;2362;50.780;0.292;2023-02-03T04:51:05;8.70;99.90
4697;DHT22;2362;50.780;0.292;2023-02-03T04:53:31;8.80;99.90
4697;DHT22;2362;50.780;0.292;2023-02-03T04:55:57;8.80;99.90
4697;DHT22;2362;50.780;0.292;2023-02-03T04:58:23;8.80;99.90
4697;DHT22;2362;50.780;0.292;2023-02-03T05:00:48;8.80;99.90
4697;DHT22;2362;50.780;0.292;2023-02-03T05:03:14;8.80;99.90
4697;DHT22;2362;50.780;0.292;2023-02-03T05:05:40;8.70;99.90
4697;DHT22;2362;50.780;0.292;2023-02-03T05:08:05;8.70;99.90
4697;DHT22;2362;50.780;0.292;2023-02-03T05:10:31;8.70;99.90
4697;DHT22;2362;50.780;0.292;2023-02-03T05:12:57;8.80;99.90
4697;DHT22;2362;50.780;0.292;2023-02-03T05:15:23;8.70;99.90
4697;DHT22;2362;50.780;0.292;2023-02-03T05:17:53;8.80;99.90
4697;DHT22;2362;50.780;0.292;2023-02-03T05:20:20;8.70;99.90
4697;DHT22;2362;50.780;0.292;2023-02-03T05:22:46;8.70;99.90
4697;DHT22;2362;50.780;0.292;2023-02-03T05:25:12;8.70;99.90
4697;DHT22;2362;50.780;0.292;2023-02-03T05:27:38;8.70;99.90
4697;DHT22;2362;50.780;0.292;2023-02-03T05:30:05;8.70;99.90
4697;DHT22;2362;50.780;0.292;2023-02-03T05:32:31;8.70;99.90
4697;DHT22;2362;50.780;0.292;2023-02-03T05:34:56;8.70;99.90
4697;DHT22;2362;50.780;0.292;2023-02-03T05:37:22;8.70;99.90
4697;DHT22;2362;50.780;0.292;2023-02-03T05:39:48;8.70;99.90
4697;DHT22;2362;50.780;0.292;2023-02-03T05:42:14;8.70;99.90
4697;DHT22;2362;50.780;0.292;2023-02-03T05:44:40;8.70;99.90
4697;DHT22;2362;50.780;0.292;2023-02-03T05:47:06;8.70;99.90
4697;DHT22;2362;50.780;0.292;2023-02-03T05:49:32;8.70;99.90
4697;DHT22;2362;50.780;0.292;2023-02-03T05:51:57;8.70;99.90
4697;DHT22;2362;50.780;0.292;2023-02-03T05:54:23;8.80;99.90
4697;DHT22;2362;50.780;0.292;2023-02-03T05:56:49;8.70;99.90
4697;DHT22;2362;50.780;0.292;2023-02-03T05:59:15;8.70;99.90
4697;DHT22;2362;50.780;0.292;2023-02-03T06:01:40;8.70;99.90
4697;DHT22;2362;50.780;0.292;2023-02-03T06:04:06;8.70;99.90
4697;DHT22;2362;50.780;0.292;2023-02-03T06:06:32;8.70;99.90
4697;DHT22;2362;50.780;0.292;2023-02-03T06:09:06;8.70;99.90
4697;DHT22;2362;50.780;0.292;2023-02-03T06:11:32;8.70;99.90
4697;DHT22;2362;50.780;0.292;2023-02-03T06:13:59;8.70;99.90
4697;DHT22;2362;50.780;0.292;2023-02-03T06:16:25;8.70;99.90
4697;DHT22;2362;50.780;0.292;2023-02-03T06:18:52;8.70;99.90
4697;DHT22;2362;50.780;0.292;2023-02-03T06:21:18;8.70;99.90
4697;DHT22;2362;50.780;0.292;2023-02-03T06:23:44;8.70;99.90
4697;DHT22;2362;50.780;0.292;2023-02-03T06:26:10;8.70;99.90
4697;DHT22;2362;50.780;0.292;2023-02-03T06:28:35;8.60;99.90
4697;DHT22;2362;50.780;0.292;2023-02-03T06:31:03;8.60;99.90
4697;DHT22;2362;50.780;0.292;2023-02-03T06:33:29;8.60;99.90
4697;DHT22;2362;50.780;0.292;2023-02-03T06:35:55;8.60;99.90
4697;DHT22;2362;50.780;0.292;2023-02-03T06:38:20;8.60;99.90
4697;DHT22;2362;50.780;0.292;2023-02-03T06:40:46;8.50;99.90
4697;DHT22;2362;50.780;0.292;2023-02-03T06:43:12;8.60;99.90
4697;DHT22;2362;50.780;0.292;2023-02-03T06:45:38;8.60;99.90
4697;DHT22;2362;50.780;0.292;2023-02-03T06:48:04;8.50;99.90
4697;DHT22;2362;50.780;0.292;2023-02-03T06:50:29;8.50;99.90
4697;DHT22;2362;50.780;0.292;2023-02-03T06:52:55;8.50;99.90
4697;DHT22;2362;50.780;0.292;2023-02-03T06:55:20;8.50;99.90
4697;DHT22;2362;50.780;0.292;2023-02-03T06:57:47;8.40;99.90
4697;DHT22;2362;50.780;0.292;2023-02-03T07:00:14;8.40;99.90
4697;DHT22;2362;50.780;0.292;2023-02-03T07:02:39;8.30;99.90
4697;DHT22;2362;50.780;0.292;2023-02-03T07:05:05;8.40;99.90
4697;DHT22;2362;50.780;0.292;2023-02-03T07:07:35;8.40;99.90
4697;DHT22;2362;50.780;0.292;2023-02-03T07:10:01;8.40;99.90
4697;DHT22;2362;50.780;0.292;2023-02-03T07:12:27;8.30;99.90
4697;DHT22;2362;50.780;0.292;2023-02-03T07:14:53;8.40;99.90
4697;DHT22;2362;50.780;0.292;2023-02-03T07:17:18;8.40;99.90
4697;DHT22;2362;50.780;0.292;2023-02-03T07:19:44;8.40;99.90
4697;DHT22;2362;50.780;0.292;2023-02-03T07:22:10;8.40;99.90
4697;DHT22;2362;50.780;0.292;2023-02-03T07:24:36;8.40;99.90
4697;DHT22;2362;50.780;0.292;2023-02-03T07:27:03;8.40;99.90
4697;DHT22;2362;50.780;0.292;2023-02-03T07:29:29;8.50;99.90
4697;DHT22;2362;50.780;0.292;2023-02-03T07:31:55;8.50;99.90
4697;DHT22;2362;50.780;0.292;2023-02-03T07:34:22;8.40;99.90
4697;DHT22;2362;50.780;0.292;2023-02-03T07:36:47;8.40;99.90
4697;DHT22;2362;50.780;0.292;2023-02-03T07:39:13;8.30;99.90
4697;DHT22;2362;50.780;0.292;2023-02-03T07:41:40;8.30;99.90
4697;DHT22;2362;50.780;0.292;2023-02-03T07:44:06;8.30;99.90
4697;DHT22;2362;50.780;0.292;2023-02-03T07:46:33;8.30;99.90
4697;DHT22;2362;50.780;0.292;2023-02-03T07:48:59;8.30;99.90
4697;DHT22;2362;50.780;0.292;2023-02-03T07:51:25;8.30;99.90
4697;DHT22;2362;50.780;0.292;2023-02-03T07:53:51;8.30;99.90
4697;DHT22;2362;50.780;0.292;2023-02-03T07:56:16;8.30;99.90
4697;DHT22;2362;50.780;0.292;2023-02-03T07:58:42;8.30;99.90
4697;DHT22;2362;50.780;0.292;2023-02-03T08:01:15;8.40;99.90
4697;DHT22;2362;50.780;0.292;2023-02-03T08:03:41;8.40;99.90
4697;DHT22;2362;50.780;0.292;2023-02-03T08:06:07;8.50;99.90
4697;DHT22;2362;50.780;0.292;2023-02-03T08:08:33;8.40;99.90
4697;DHT22;2362;50.780;0.292;2023-02-03T08:10:59;8.40;99.90
4697;DHT22;2362;50.780;0.292;2023-02-03T08:13:24;8.50;99.90
4697;DHT22;2362;50.780;0.292;2023-02-03T08:15:50;8.50;99.90
4697;DHT22;2362;50.780;0.292;2023-02-03T08:18:17;8.50;99.90
4697;DHT22;2362;50.780;0.292;2023-02-03T08:20:45;8.60;99.90
4697;DHT22;2362;50.780;0.292;2023-02-03T08:23:10;8.60;99.90
4697;DHT22;2362;50.780;0.292;2023-02-03T08:25:36;8.60;99.90
4697;DHT22;2362;50.780;0.292;2023-02-03T08:28:02;8.70;99.90
4697;DHT22;2362;50.780;0.292;2023-02-03T08:30:28;8.60;99.90
4697;DHT22;2362;50.780;0.292;2023-02-03T08:32:53;8.60;99.90
4697;DHT22;2362;50.780;0.292;2023-02-03T08:35:19;8.70;99.90
4697;DHT22;2362;50.780;0.292;2023-02-03T08:37:45;8.70;99.90
4697;DHT22;2362;50.780;0.292;2023-02-03T08:40:11;8.70;99.90
4697;DHT22;2362;50.780;0.292;2023-02-03T08:42:37;8.70;99.90
4697;DHT22;2362;50.780;0.292;2023-02-03T08:45:03;8.70;99.90
4697;DHT22;2362;50.780;0.292;2023-02-03T08:47:29;8.70;99.90
4697;DHT22;2362;50.780;0.292;2023-02-03T08:49:55;8.80;99.90
4697;DHT22;2362;50.780;0.292;2023-02-03T08:52:21;8.80;99.90
4697;DHT22;2362;50.780;0.292;2023-02-03T08:54:47;8.80;99.90
4697;DHT22;2362;50.780;0.292;2023-02-03T08:57:13;8.80;99.90
4697;DHT22;2362;50.780;0.292;2023-02-03T08:59:40;8.80;99.90
4697;DHT22;2362;50.780;0.292;2023-02-03T09:02:09;8.80;99.90
4697;DHT22;2362;50.780;0.292;2023-02-03T09:04:36;8.90;99.90
4697;DHT22;2362;50.780;0.292;2023-02-03T09:07:02;8.90;99.90
4697;DHT22;2362;50.780;0.292;2023-02-03T09:09:29;8.90;99.90
4697;DHT22;2362;50.780;0.292;2023-02-03T09:11:55;8.90;99.90
4697;DHT22;2362;50.780;0.292;2023-02-03T09:14:27;9.00;99.90
4697;DHT22;2362;50.780;0.292;2023-02-03T09:16:53;9.00;99.90
4697;DHT22;2362;50.780;0.292;2023-02-03T09:19:19;9.00;99.90
4697;DHT22;2362;50.780;0.292;2023-02-03T09:21:45;9.00;99.90
4697;DHT22;2362;50.780;0.292;2023-02-03T09:24:16;9.00;99.90
4697;DHT22;2362;50.780;0.292;2023-02-03T09:26:43;9.00;99.90
4697;DHT22;2362;50.780;0.292;2023-02-03T09:29:08;9.00;99.90
4697;DHT22;2362;50.780;0.292;2023-02-03T09:31:34;9.00;99.90
4697;DHT22;2362;50.780;0.292;2023-02-03T09:34:00;9.10;99.90
4697;DHT22;2362;50.780;0.292;2023-02-03T09:36:26;9.10;99.90
4697;DHT22;2362;50.780;0.292;2023-02-03T09:38:51;9.10;99.90
4697;DHT22;2362;50.780;0.292;2023-02-03T09:46:59;9.20;99.90
4697;DHT22;2362;50.780;0.292;2023-02-03T09:57:21;9.40;99.90
4697;DHT22;2362;50.780;0.292;2023-02-03T09:59:47;9.50;99.90
4697;DHT22;2362;50.780;0.292;2023-02-03T10:04:53;9.60;99.90
4697;DHT22;2362;50.780;0.292;2023-02-03T10:07:33;9.70;99.90
4697;DHT22;2362;50.780;0.292;2023-02-03T10:10:40;9.70;99.90
4697;DHT22;2362;50.780;0.292;2023-02-03T10:18:45;9.60;99.90
4697;DHT22;2362;50.780;0.292;2023-02-03T10:21:16;9.60;99.90
4697;DHT22;2362;50.780;0.292;2023-02-03T10:23:46;9.60;99.90
4697;DHT22;2362;50.780;0.292;2023-02-03T10:26:25;9.60;99.90
4697;DHT22;2362;50.780;0.292;2023-02-03T10:28:57;9.60;99.90
4697;DHT22;2362;50.780;0.292;2023-02-03T10:31:27;9.60;99.90
4697;DHT22;2362;50.780;0.292;2023-02-03T10:34:07;9.70;99.90
4697;DHT22;2362;50.780;0.292;2023-02-03T10:41:53;9.90;99.90
4697;DHT22;2362;50.780;0.292;2023-02-03T10:44:19;9.80;99.90
4697;DHT22;2362;50.780;0.292;2023-02-03T10:46:45;9.80;99.90
4697;DHT22;2362;50.780;0.292;2023-02-03T10:49:12;9.90;99.90
4697;DHT22;2362;50.780;0.292;2023-02-03T10:51:48;10.00;99.90
4697;DHT22;2362;50.780;0.292;2023-02-03T10:54:32;10.00;99.90
4697;DHT22;2362;50.780;0.292;2023-02-03T10:57:05;10.00;99.90
4697;DHT22;2362;50.780;0.292;2023-02-03T10:59:33;10.10;99.90
4697;DHT22;2362;50.780;0.292;2023-02-03T11:02:00;10.10;99.90
4697;DHT22;2362;50.780;0.292;2023-02-03T11:04:32;10.20;99.90
4697;DHT22;2362;50.780;0.292;2023-02-03T11:07:03;10.10;99.90
4697;DHT22;2362;50.780;0.292;2023-02-03T11:09:42;10.00;99.90
4697;DHT22;2362;50.780;0.292;2023-02-03T11:14:40;10.20;99.90
4697;DHT22;2362;50.780;0.292;2023-02-03T11:17:23;10.10;99.90
4697;DHT22;2362;50.780;0.292;2023-02-03T11:19:52;10.20;99.90
4697;DHT22;2362;50.780;0.292;2023-02-03T11:22:30;10.10;99.90
4697;DHT22;2362;50.780;0.292;2023-02-03T11:24:57;10.20;99.90
4697;DHT22;2362;50.780;0.292;2023-02-03T11:27:24;10.20;99.90
4697;DHT22;2362;50.780;0.292;2023-02-03T11:30:10;10.20;99.90
4697;DHT22;2362;50.780;0.292;2023-02-03T11:32:41;10.20;99.90
4697;DHT22;2362;50.780;0.292;2023-02-03T11:35:17;10.20;99.90
4697;DHT22;2362;50.780;0.292;2023-02-03T11:37:50;10.10;99.90
4697;DHT22;2362;50.780;0.292;2023-02-03T11:40:24;10.20;99.90
4697;DHT22;2362;50.780;0.292;2023-02-03T11:45:40;10.20;99.90
4697;DHT22;2362;50.780;0.292;2023-02-03T11:56:16;10.30;99.90
4697;DHT22;2362;50.780;0.292;2023-02-03T12:26:20;10.50;99.90
4697;DHT22;2362;50.780;0.292;2023-02-03T12:31:52;10.70;99.90
4697;DHT22;2362;50.780;0.292;2023-02-03T12:34:27;10.70;99.90
4697;DHT22;2362;50.780;0.292;2023-02-03T12:37:05;10.70;99.90
4697;DHT22;2362;50.780;0.292;2023-02-03T12:39:41;10.70;99.90
4697;DHT22;2362;50.780;0.292;2023-02-03T12:42:38;10.70;99.90
4697;DHT22;2362;50.780;0.292;2023-02-03T12:45:33;10.80;99.90
4697;DHT22;2362;50.780;0.292;2023-02-03T12:48:12;10.90;99.90
4697;DHT22;2362;50.780;0.292;2023-02-03T12:50:45;10.90;99.90
4697;DHT22;2362;50.780;0.292;2023-02-03T12:53:29;10.90;99.90
4697;DHT22;2362;50.780;0.292;2023-02-03T12:55:57;11.00;99.90
4697;DHT22;2362;50.780;0.292;2023-02-03T12:58:28;11.00;99.90
4697;DHT22;2362;50.780;0.292;2023-02-03T13:00:57;11.10;99.90
4697;DHT22;2362;50.780;0.292;2023-02-03T13:03:48;11.20;99.90
4697;DHT22;2362;50.780;0.292;2023-02-03T13:06:33;11.30;99.90
4697;DHT22;2362;50.780;0.292;2023-02-03T13:09:43;11.40;99.90
4697;DHT22;2362;50.780;0.292;2023-02-03T13:20:22;11.50;99.90
4697;DHT22;2362;50.780;0.292;2023-02-03T13:22:49;11.50;99.90
4697;DHT22;2362;50.780;0.292;2023-02-03T13:25:16;11.60;99.90
4697;DHT22;2362;50.780;0.292;2023-02-03T13:30:35;11.60;99.90
4697;DHT22;2362;50.780;0.292;2023-02-03T13:41:48;11.50;99.90
4697;DHT22;2362;50.780;0.292;2023-02-03T13:44:19;11.60;99.90
4697;DHT22;2362;50.780;0.292;2023-02-03T13:46:48;11.50;99.90
4697;DHT22;2362;50.780;0.292;2023-02-03T13:49:24;11.50;99.90
4697;DHT22;2362;50.780;0.292;2023-02-03T13:51:51;11.50;99.90
4697;DHT22;2362;50.780;0.292;2023-02-03T13:54:27;11.50;99.90
4697;DHT22;2362;50.780;0.292;2023-02-03T13:56:58;11.50;99.90
4697;DHT22;2362;50.780;0.292;2023-02-03T13:59:39;11.50;99.90
4697;DHT22;2362;50.780;0.292;2023-02-03T14:07:34;11.50;99.90
4697;DHT22;2362;50.780;0.292;2023-02-03T14:10:20;11.50;99.90
4697;DHT22;2362;50.780;0.292;2023-02-03T14:25:19;11.50;99.90
4697;DHT22;2362;50.780;0.292;2023-02-03T14:28:07;11.50;99.90
4697;DHT22;2362;50.780;0.292;2023-02-03T14:31:09;11.50;99.90
4697;DHT22;2362;50.780;0.292;2023-02-03T14:34:03;11.60;99.90
4697;DHT22;2362;50.780;0.292;2023-02-03T14:36:47;11.60;99.90
4697;DHT22;2362;50.780;0.292;2023-02-03T14:42:15;11.60;99.90
4697;DHT22;2362;50.780;0.292;2023-02-03T14:44:55;11.60;99.90
4697;DHT22;2362;50.780;0.292;2023-02-03T14:48:22;11.60;99.90
4697;DHT22;2362;50.780;0.292;2023-02-03T14:53:09;11.70;99.90
4697;DHT22;2362;50.780;0.292;2023-02-03T14:58:06;11.80;99.90
4697;DHT22;2362;50.780;0.292;2023-02-03T15:00:40;11.80;99.90
4697;DHT22;2362;50.780;0.292;2023-02-03T15:08:03;11.60;99.90
4697;DHT22;2362;50.780;0.292;2023-02-03T15:10:42;11.60;99.90
4697;DHT22;2362;50.780;0.292;2023-02-03T15:13:31;11.50;99.90
4697;DHT22;2362;50.780;0.292;2023-02-03T15:16:00;11.50;99.90
4697;DHT22;2362;50.780;0.292;2023-02-03T15:18:33;11.50;99.90
4697;DHT22;2362;50.780;0.292;2023-02-03T15:21:03;11.50;99.90
4697;DHT22;2362;50.780;0.292;2023-02-03T15:23:40;11.50;99.90
4697;DHT22;2362;50.780;0.292;2023-02-03T15:26:25;11.50;99.90
4697;DHT22;2362;50.780;0.292;2023-02-03T15:29:03;11.40;99.90
4697;DHT22;2362;50.780;0.292;2023-02-03T15:32:05;11.40;99.90
4697;DHT22;2362;50.780;0.292;2023-02-03T15:34:31;11.30;99.90
4697;DHT22;2362;50.780;0.292;2023-02-03T15:37:08;11.30;99.90
4697;DHT22;2362;50.780;0.292;2023-02-03T15:40:22;11.30;99.90
4697;DHT22;2362;50.780;0.292;2023-02-03T15:43:02;11.20;99.90
4697;DHT22;2362;50.780;0.292;2023-02-03T15:45:34;11.20;99.90
4697;DHT22;2362;50.780;0.292;2023-02-03T15:50:53;11.10;99.90
4697;DHT22;2362;50.780;0.292;2023-02-03T15:53:26;11.10;99.90
4697;DHT22;2362;50.780;0.292;2023-02-03T15:55:56;11.10;99.90
4697;DHT22;2362;50.780;0.292;2023-02-03T15:58:24;11.00;99.90
4697;DHT22;2362;50.780;0.292;2023-02-03T16:00:56;11.00;99.90
4697;DHT22;2362;50.780;0.292;2023-02-03T16:03:37;10.90;99.90
4697;DHT22;2362;50.780;0.292;2023-02-03T16:06:28;10.90;99.90
4697;DHT22;2362;50.780;0.292;2023-02-03T16:08:55;10.80;99.90
4697;DHT22;2362;50.780;0.292;2023-02-03T16:13:48;10.70;99.90
4697;DHT22;2362;50.780;0.292;2023-02-03T16:16:22;10.70;99.90
4697;DHT22;2362;50.780;0.292;2023-02-03T16:18:57;10.70;99.90
4697;DHT22;2362;50.780;0.292;2023-02-03T16:29:45;10.80;99.90
4697;DHT22;2362;50.780;0.292;2023-02-03T16:32:29;10.70;99.90
4697;DHT22;2362;50.780;0.292;2023-02-03T16:35:13;10.70;99.90
4697;DHT22;2362;50.780;0.292;2023-02-03T16:38:05;10.70;99.90
4697;DHT22;2362;50.780;0.292;2023-02-03T16:40:49;10.60;99.90
4697;DHT22;2362;50.780;0.292;2023-02-03T16:43:34;10.50;99.90
4697;DHT22;2362;50.780;0.292;2023-02-03T16:46:18;10.50;99.90
4697;DHT22;2362;50.780;0.292;2023-02-03T16:49:02;10.50;99.90
4697;DHT22;2362;50.780;0.292;2023-02-03T16:51:47;10.50;99.90
4697;DHT22;2362;50.780;0.292;2023-02-03T16:54:13;10.50;99.90
4697;DHT22;2362;50.780;0.292;2023-02-03T16:56:40;10.50;99.90
4697;DHT22;2362;50.780;0.292;2023-02-03T16:59:06;10.50;99.90
4697;DHT22;2362;50.780;0.292;2023-02-03T17:01:31;10.50;99.90
4697;DHT22;2362;50.780;0.292;2023-02-03T17:03:57;10.50;99.90
4697;DHT22;2362;50.780;0.292;2023-02-03T17:06:23;10.50;99.90
4697;DHT22;2362;50.780;0.292;2023-02-03T17:08:49;10.50;99.90
4697;DHT22;2362;50.780;0.292;2023-02-03T17:11:17;10.50;99.90
4697;DHT22;2362;50.780;0.292;2023-02-03T17:13:44;10.60;99.90
4697;DHT22;2362;50.780;0.292;2023-02-03T17:16:15;10.50;99.90
4697;DHT22;2362;50.780;0.292;2023-02-03T17:19:00;10.50;99.90
4697;DHT22;2362;50.780;0.292;2023-02-03T17:21:27;10.50;99.90
4697;DHT22;2362;50.780;0.292;2023-02-03T17:23:53;10.50;99.90
4697;DHT22;2362;50.780;0.292;2023-02-03T17:26:23;10.50;99.90
4697;DHT22;2362;50.780;0.292;2023-02-03T17:28:49;10.50;99.90
4697;DHT22;2362;50.780;0.292;2023-02-03T17:31:19;10.40;99.90
4697;DHT22;2362;50.780;0.292;2023-02-03T17:33:45;10.30;99.90
4697;DHT22;2362;50.780;0.292;2023-02-03T17:36:14;10.30;99.90
4697;DHT22;2362;50.780;0.292;2023-02-03T17:38:42;10.30;99.90
4697;DHT22;2362;50.780;0.292;2023-02-03T17:41:13;10.30;99.90
4697;DHT22;2362;50.780;0.292;2023-02-03T17:43:40;10.40;99.90
4697;DHT22;2362;50.780;0.292;2023-02-03T17:46:06;10.30;99.90
4697;DHT22;2362;50.780;0.292;2023-02-03T17:48:33;10.30;99.90
4697;DHT22;2362;50.780;0.292;2023-02-03T17:51:08;10.30;99.90
4697;DHT22;2362;50.780;0.292;2023-02-03T17:53:34;10.20;99.90
4697;DHT22;2362;50.780;0.292;2023-02-03T17:56:09;10.20;99.90
4697;DHT22;2362;50.780;0.292;2023-02-03T17:58:36;10.10;99.90
4697;DHT22;2362;50.780;0.292;2023-02-03T18:03:50;10.10;99.90
4697;DHT22;2362;50.780;0.292;2023-02-03T18:06:18;10.10;99.90
4697;DHT22;2362;50.780;0.292;2023-02-03T18:08:45;10.00;99.90
4697;DHT22;2362;50.780;0.292;2023-02-03T18:11:11;10.10;99.90
4697;DHT22;2362;50.780;0.292;2023-02-03T18:13:41;10.10;99.90
4697;DHT22;2362;50.780;0.292;2023-02-03T18:16:09;10.20;99.90
4697;DHT22;2362;50.780;0.292;2023-02-03T18:18:36;10.30;99.90
4697;DHT22;2362;50.780;0.292;2023-02-03T18:21:06;10.20;99.90
4697;DHT22;2362;50.780;0.292;2023-02-03T18:23:32;10.20;99.90
4697;DHT22;2362;50.780;0.292;2023-02-03T18:25:58;10.10;99.90
4697;DHT22;2362;50.780;0.292;2023-02-03T18:28:24;10.10;99.90
4697;DHT22;2362;50.780;0.292;2023-02-03T18:30:50;10.10;99.90
4697;DHT22;2362;50.780;0.292;2023-02-03T18:33:16;10.10;99.90
4697;DHT22;2362;50.780;0.292;2023-02-03T18:35:43;10.00;99.90
4697;DHT22;2362;50.780;0.292;2023-02-03T18:38:11;10.10;99.90
4697;DHT22;2362;50.780;0.292;2023-02-03T18:40:37;10.10;99.90
4697;DHT22;2362;50.780;0.292;2023-02-03T18:43:03;10.10;99.90
4697;DHT22;2362;50.780;0.292;2023-02-03T18:45:29;10.10;99.90
4697;DHT22;2362;50.780;0.292;2023-02-03T18:47:59;10.10;99.90
4697;DHT22;2362;50.780;0.292;2023-02-03T18:50:25;10.00;99.90
4697;DHT22;2362;50.780;0.292;2023-02-03T18:52:54;10.00;99.90
4697;DHT22;2362;50.780;0.292;2023-02-03T18:55:20;10.00;99.90
4697;DHT22;2362;50.780;0.292;2023-02-03T18:57:46;10.00;99.90
4697;DHT22;2362;50.780;0.292;2023-02-03T19:00:13;10.00;99.90
4697;DHT22;2362;50.780;0.292;2023-02-03T19:02:39;10.00;99.90
4697;DHT22;2362;50.780;0.292;2023-02-03T19:05:06;10.00;99.90
4697;DHT22;2362;50.780;0.292;2023-02-03T19:07:34;10.00;99.90
4697;DHT22;2362;50.780;0.292;2023-02-03T19:09:59;10.00;99.90
4697;DHT22;2362;50.780;0.292;2023-02-03T19:12:25;10.00;99.90
4697;DHT22;2362;50.780;0.292;2023-02-03T19:14:52;10.00;99.90
4697;DHT22;2362;50.780;0.292;2023-02-03T19:17:18;10.00;99.90